Sarasota, FL

06:07 AM EST del 03 Marzo 2015 (GMT -0500)
GULF GATE EAST | Change Station
CLOSE
Current Station
Stazione meteo personale
Location: SARASOTA, FL
Altitudine: 26 ft
Stazioni meteo nelle vicinanze

Alt. 26 ft 27.26 °N, 82.50 °W | Updated 7 seconds ago

Sereno
Sereno
65.6 °F
Sembra 65.6 °F
N
1.0
Vento Variabile Vento da Est
Gusts 2.0 mph

Oggi
Massima -- | Minima -- °F
--% Possibilità di precip.
Ieri
Massima -- | Minima -- °F
Precip. -- in
6:52 AM 6:31 PM
Gobba a ponente, 95% visible
Pressione 30.17 in
Visibilità 8.0 miglia
Nuvole Coperto 200 ft
Punto di rugiada 65 °F
Umidità 97%
Piovosità 0.00 in
Spessore del manto nevoso Non disponibile.
Raggi UV 0 fuori da 12
Polline 9.10 fuori da 12
Qualità dell'aria Non disponibile.
Flu Activity Non disponibile.
METAR KSRQ 031053Z 07004KT 8SM OVC002 18/17 A3017 RMK AO2 SLP216 T01780172

More Conditions Fewer Conditions

Pressione 30.17 in
Visibilità 8.0 miglia
Nuvole Coperto 200 ft
Punto di rugiada 65 °F
Umidità 97%
Piovosità 0.00 in
Spessore del manto nevoso Non disponibile.
Raggi UV 0 fuori da 12
Polline 9.10 fuori da 12
Qualità dell'aria Non disponibile.
Flu Activity Non disponibile.
METAR KSRQ 031053Z 07004KT 8SM OVC002 18/17 A3017 RMK AO2 SLP216 T01780172

More Conditions Fewer Conditions

10-Day Weather Forecast

Almanac

Astronomia

Mar. 03, 2015 Alba Tramonto
Ora attuale
Crepuscolo civile
Crepuscolo nautico
Crepuscolo astronomico
Luna
Estensione della luce visibile
Lunghezza del giorno
Tomorrow will be .
, % of the Moon is Illuminated

Gli estremi di oggi

State Highs State Lows

Community

WunderPhotos

Upload Photos

1,802,087 foto caricate!

WunderBlogs® & News

Nearby

Qualità dell'aria

  Qualità dell'aria Indice AQ Inquinante
Not available.

Profondità neve

Stazione Profondità Altitudine

Attività sismica

Città  Distanza Mag. Data & Ora
Minimo Magnitudo Mostrato è 2.5.

Temperature delle acque costiere

Località Temperatura

Stazioni meteo nelle vicinanze